Time;durP1;ratioP1;P1;durP2;ratioP2;P2;SDS_P1;SDS_P2;PMS_P1;PMS_P2;Temp;Humidity;BMP_temperature;BMP_pressure;BME280_temperature;BME280_humidity;BME280_pressure;Samples;Min_cycle;Max_cycle;Signal;HPM_P1;HPM_P2
2021/07/13 00:21:34;;;;;;;16.73;14.00;;;21.70;99.90;;;;;;6140003;23;20452;-51
2021/07/13 01:15:52;;;;;;;14.77;13.33;;;21.30;99.90;;;;;;6127731;23;20418;-47
2021/07/13 01:18:22;;;;;;;17.17;15.03;;;21.30;99.90;;;;;;6127630;23;20884;-52
2021/07/13 01:21:28;;;;;;;17.27;14.73;;;21.30;99.90;;;;;;6127871;23;20485;-48
2021/07/13 01:24:30;;;;;;;15.10;12.77;;;21.20;99.90;;;;;;6127505;23;20457;-49
2021/07/13 01:27:09;;;;;;;13.93;12.43;;;21.20;99.90;;;;;;6128620;23;20747;-50
2021/07/13 01:29:38;;;;;;;15.30;13.40;;;21.10;99.90;;;;;;6128175;23;20490;-46
2021/07/13 01:32:07;;;;;;;15.43;13.80;;;21.00;99.90;;;;;;6128308;23;20462;-55
2021/07/13 01:34:40;;;;;;;15.50;13.90;;;21.00;99.90;;;;;;6128196;23;20886;-46
2021/07/13 01:37:09;;;;;;;16.37;14.13;;;21.00;99.90;;;;;;6127780;23;20450;-50
2021/07/13 01:39:39;;;;;;;16.07;13.50;;;21.00;99.90;;;;;;6128337;23;20686;-48
2021/07/13 01:42:09;;;;;;;16.60;13.73;;;21.00;99.90;;;;;;6127867;23;20478;-51
2021/07/13 01:44:38;;;;;;;14.37;12.97;;;20.90;99.90;;;;;;6127719;23;20442;-48
2021/07/13 01:47:06;;;;;;;15.27;13.57;;;20.90;99.90;;;;;;6128055;23;20425;-51
2021/07/13 01:49:35;;;;;;;28.60;22.23;;;20.90;99.90;;;;;;6128315;23;20418;-46
2021/07/13 01:52:04;;;;;;;29.50;25.77;;;20.90;99.90;;;;;;6127621;23;20414;-51
2021/07/13 01:54:33;;;;;;;27.57;22.90;;;20.90;99.90;;;;;;6126674;23;20489;-46
2021/07/13 01:57:00;;;;;;;25.40;20.93;;;20.90;99.90;;;;;;6127938;23;20411;-47
2021/07/13 01:59:28;;;;;;;20.17;18.00;;;20.80;99.90;;;;;;6127546;23;20402;-46
2021/07/13 02:02:00;;;;;;;19.87;17.50;;;20.80;99.90;;;;;;6127527;23;20423;-46
2021/07/13 02:04:30;;;;;;;22.53;16.20;;;20.80;99.90;;;;;;6127554;23;20423;-47
2021/07/13 02:06:59;;;;;;;16.67;13.83;;;20.80;99.90;;;;;;6127474;23;20403;-46
2021/07/13 02:09:26;;;;;;;15.53;13.90;;;20.80;99.90;;;;;;6127094;23;20877;-45
2021/07/13 02:11:54;;;;;;;14.63;13.13;;;20.70;99.90;;;;;;6127017;23;20477;-48
2021/07/13 02:14:20;;;;;;;17.10;14.53;;;20.70;99.90;;;;;;6127155;23;20439;-45
2021/07/13 02:16:48;;;;;;;14.73;13.17;;;20.70;99.90;;;;;;6127011;23;20473;-47
2021/07/13 02:19:21;;;;;;;14.70;12.83;;;20.70;99.90;;;;;;6127138;23;20423;-48
2021/07/13 02:21:49;;;;;;;14.20;12.20;;;20.70;99.90;;;;;;6127454;23;20403;-44
2021/07/13 02:24:16;;;;;;;17.20;13.20;;;20.70;99.90;;;;;;6127559;23;20469;-52
2021/07/13 02:26:47;;;;;;;14.03;12.63;;;20.70;99.90;;;;;;6127688;23;20407;-49
2021/07/13 02:29:19;;;;;;;17.40;11.37;;;20.70;99.90;;;;;;6127860;23;20449;-47
2021/07/13 02:31:50;;;;;;;15.73;12.83;;;20.70;99.90;;;;;;6127852;23;20391;-45
2021/07/13 02:34:19;;;;;;;14.93;13.00;;;20.70;99.90;;;;;;6127498;23;20387;-45
2021/07/13 02:36:49;;;;;;;13.50;11.67;;;20.70;99.90;;;;;;6127783;23;20482;-48
2021/07/13 02:39:19;;;;;;;15.27;12.00;;;20.60;99.90;;;;;;6127810;23;20515;-49
2021/07/13 02:41:49;;;;;;;15.93;13.63;;;20.60;99.90;;;;;;6127740;23;20417;-44
2021/07/13 02:44:17;;;;;;;14.67;13.10;;;20.60;99.90;;;;;;6127674;23;20443;-48
2021/07/13 02:46:44;;;;;;;16.60;12.20;;;20.60;99.90;;;;;;6127709;23;20414;-50
2021/07/13 02:49:15;;;;;;;14.23;12.00;;;20.60;99.90;;;;;;6127752;23;20406;-48
2021/07/13 02:51:44;;;;;;;13.90;11.20;;;20.60;99.90;;;;;;6127799;23;20430;-45
2021/07/13 02:54:15;;;;;;;19.80;11.90;;;20.60;99.90;;;;;;6127660;23;20462;-47
2021/07/13 02:56:43;;;;;;;12.80;11.33;;;20.60;99.90;;;;;;6127868;23;20391;-52
2021/07/13 02:59:10;;;;;;;13.50;12.20;;;20.60;99.90;;;;;;6127640;23;20430;-46
2021/07/13 03:01:37;;;;;;;14.13;12.00;;;20.60;99.90;;;;;;6127637;23;20407;-48
2021/07/13 03:04:06;;;;;;;14.80;12.80;;;20.60;99.90;;;;;;6128141;23;20451;-49
2021/07/13 03:06:33;;;;;;;15.17;12.27;;;20.50;99.90;;;;;;6127698;23;20519;-48
2021/07/13 03:09:02;;;;;;;12.80;11.40;;;20.60;99.90;;;;;;6127690;23;20485;-47
2021/07/13 03:11:31;;;;;;;13.63;12.23;;;20.60;99.90;;;;;;6127278;23;20865;-48
2021/07/13 03:13:59;;;;;;;13.23;11.83;;;20.50;99.90;;;;;;6127174;23;20953;-49
2021/07/13 03:16:27;;;;;;;14.10;11.87;;;20.50;99.90;;;;;;6127607;23;20406;-45
2021/07/13 03:18:54;;;;;;;12.87;11.27;;;20.50;99.90;;;;;;6127571;23;20418;-49
2021/07/13 03:21:25;;;;;;;14.77;12.20;;;20.60;99.90;;;;;;6127717;23;20857;-47
2021/07/13 03:23:59;;;;;;;13.17;11.43;;;20.60;99.90;;;;;;6127625;23;20391;-48
2021/07/13 03:26:29;;;;;;;13.87;12.37;;;20.60;99.90;;;;;;6127647;23;20399;-49
2021/07/13 03:28:56;;;;;;;14.10;12.67;;;20.60;99.90;;;;;;6127661;23;20457;-46
2021/07/13 03:31:23;;;;;;;13.63;12.13;;;20.50;99.90;;;;;;6127277;23;20422;-48
2021/07/13 03:33:52;;;;;;;14.13;12.43;;;20.50;99.90;;;;;;6127714;23;20414;-46
2021/07/13 03:36:19;;;;;;;15.57;13.17;;;20.50;99.90;;;;;;6129481;23;20473;-48
2021/07/13 03:38:45;;;;;;;15.20;12.83;;;20.50;99.90;;;;;;6128538;23;20449;-50
2021/07/13 04:41:18;;;;;;;13.60;11.60;;;20.80;99.90;;;;;;6172168;23;20476;-46
2021/07/13 04:43:44;;;;;;;13.53;12.13;;;20.80;99.90;;;;;;6214845;23;20429;-45
2021/07/13 04:46:11;;;;;;;12.80;10.93;;;20.80;99.90;;;;;;6214516;23;20408;-44
2021/07/13 04:48:38;;;;;;;14.03;11.30;;;20.90;99.90;;;;;;6200589;23;20405;-46
2021/07/13 04:51:05;;;;;;;19.07;12.43;;;20.90;99.90;;;;;;6190840;23;20409;-45
2021/07/13 04:53:32;;;;;;;13.90;12.30;;;20.90;99.90;;;;;;6189294;23;20864;-47
2021/07/13 04:55:59;;;;;;;13.77;12.10;;;20.90;99.90;;;;;;6187752;23;20441;-50
2021/07/13 06:03:14;;;;;;;11.57;10.37;;;22.30;99.90;;;;;;6193484;23;20448;-47
2021/07/13 06:05:41;;;;;;;13.60;11.30;;;22.40;99.90;;;;;;6189020;23;20719;-43
2021/07/13 06:08:08;;;;;;;11.47;9.40;;;22.40;99.90;;;;;;6188863;23;20444;-47
2021/07/13 06:10:35;;;;;;;13.37;9.93;;;22.40;99.90;;;;;;6188457;23;20466;-50
2021/07/13 06:13:02;;;;;;;14.40;11.40;;;22.50;99.90;;;;;;6187953;23;20496;-51
2021/07/13 06:15:29;;;;;;;11.10;9.90;;;22.60;99.90;;;;;;6188266;23;20507;-46
2021/07/13 06:17:56;;;;;;;10.50;9.50;;;22.70;99.90;;;;;;6188161;23;20885;-49
2021/07/13 06:20:24;;;;;;;11.07;9.97;;;22.70;99.90;;;;;;6188097;23;20939;-47
2021/07/13 06:22:50;;;;;;;12.93;10.20;;;22.80;99.90;;;;;;6188108;23;20923;-49
2021/07/13 06:25:17;;;;;;;15.30;11.90;;;22.90;99.90;;;;;;6187677;23;20954;-46
2021/07/13 06:27:44;;;;;;;11.93;10.00;;;23.00;99.90;;;;;;6188285;23;20405;-45
2021/07/13 06:30:13;;;;;;;11.07;9.90;;;23.00;99.90;;;;;;6187813;23;20405;-48
2021/07/13 06:32:40;;;;;;;12.83;9.53;;;23.20;99.90;;;;;;6187982;23;20488;-48
2021/07/13 06:35:08;;;;;;;12.37;10.37;;;23.20;99.90;;;;;;6187814;23;20477;-49
2021/07/13 06:37:36;;;;;;;15.63;10.20;;;23.30;99.90;;;;;;6188580;23;20412;-46
2021/07/13 06:40:03;;;;;;;19.30;10.77;;;23.40;99.90;;;;;;6188075;23;20425;-47
2021/07/13 06:42:30;;;;;;;14.60;10.97;;;23.40;99.90;;;;;;6188105;23;20417;-47
2021/07/13 06:44:57;;;;;;;14.30;10.37;;;23.50;99.90;;;;;;6187696;23;20397;-46
2021/07/13 06:47:23;;;;;;;11.00;9.90;;;23.60;99.90;;;;;;6188293;23;20408;-49
2021/07/13 06:49:50;;;;;;;14.37;10.73;;;23.70;99.90;;;;;;6187927;23;20413;-51
2021/07/13 06:52:17;;;;;;;18.03;10.00;;;23.80;99.90;;;;;;6187953;23;20471;-45
2021/07/13 06:54:45;;;;;;;10.00;8.30;;;23.90;99.90;;;;;;6186923;23;20437;-50
2021/07/13 06:57:11;;;;;;;11.33;9.63;;;23.90;99.90;;;;;;6186940;23;20476;-48
2021/07/13 07:05:10;;;;;;;9.57;8.60;;;24.20;99.90;;;;;;6155925;23;20444;-46
2021/07/13 07:07:44;;;;;;;9.03;7.63;;;24.40;99.90;;;;;;6188828;23;20916;-49
2021/07/13 07:10:14;;;;;;;11.27;8.80;;;24.50;99.90;;;;;;6189287;23;20389;-46
2021/07/13 07:12:41;;;;;;;10.97;8.20;;;24.70;99.90;;;;;;6190175;23;20436;-49
2021/07/13 07:15:09;;;;;;;10.63;8.53;;;24.80;99.90;;;;;;6189274;23;20475;-48
2021/07/13 07:17:42;;;;;;;9.93;8.90;;;25.00;99.90;;;;;;6189059;23;20751;-46
2021/07/13 07:20:11;;;;;;;11.93;8.70;;;25.30;99.90;;;;;;6189435;23;20701;-49
2021/07/13 07:22:38;;;;;;;10.00;8.90;;;25.50;99.90;;;;;;6189333;23;20424;-49
2021/07/13 07:25:06;;;;;;;9.17;8.27;;;26.00;99.90;;;;;;6189175;23;20436;-51
2021/07/13 07:27:34;;;;;;;8.60;7.80;;;27.10;99.90;;;;;;6188739;23;20397;-52
2021/07/13 07:30:03;;;;;;;11.40;8.70;;;28.70;99.90;;;;;;6188903;23;20463;-49
2021/07/13 07:32:29;;;;;;;9.30;8.43;;;30.60;99.90;;;;;;6188776;23;20776;-49
2021/07/13 07:34:56;;;;;;;9.13;8.20;;;32.40;99.90;;;;;;6189520;23;20495;-49
2021/07/13 07:37:23;;;;;;;8.53;7.80;;;34.10;97.00;;;;;;6189933;23;20467;-50
2021/07/13 07:39:49;;;;;;;8.17;7.47;;;35.50;89.30;;;;;;6190603;23;20401;-49
2021/07/13 07:42:17;;;;;;;7.93;7.13;;;36.70;76.60;;;;;;6190036;23;20404;-47
2021/07/13 07:44:46;;;;;;;8.17;7.57;;;37.70;69.30;;;;;;6189762;23;20420;-48
2021/07/13 07:47:12;;;;;;;8.30;7.60;;;38.40;63.50;;;;;;6189826;23;20404;-45
2021/07/13 07:49:39;;;;;;;7.80;7.13;;;39.10;59.40;;;;;;6189417;23;20678;-49
2021/07/13 07:52:06;;;;;;;8.83;7.93;;;39.60;55.30;;;;;;6189459;23;20412;-49
2021/07/13 07:54:33;;;;;;;10.20;9.13;;;39.80;54.50;;;;;;6188802;23;20417;-49
2021/07/13 07:57:00;;;;;;;7.20;6.53;;;40.10;52.90;;;;;;6189521;23;20401;-49
2021/07/13 07:59:27;;;;;;;11.60;6.77;;;40.30;51.90;;;;;;6189041;23;20405;-47
2021/07/13 08:01:55;;;;;;;6.67;6.07;;;40.60;50.20;;;;;;6189784;23;20471;-45
2021/07/13 08:04:22;;;;;;;6.20;5.67;;;40.90;48.60;;;;;;6189515;23;20405;-50
2021/07/13 08:06:48;;;;;;;44.13;39.67;;;41.10;48.10;;;;;;6189330;23;20389;-48
2021/07/13 08:09:15;;;;;;;42.87;38.80;;;41.00;48.20;;;;;;6189495;23;20470;-49
2021/07/13 08:11:42;;;;;;;8.40;7.70;;;41.00;48.30;;;;;;6189644;23;20922;-50
2021/07/13 08:14:09;;;;;;;6.17;5.73;;;41.10;47.70;;;;;;6189244;23;20467;-45
2021/07/13 08:16:37;;;;;;;5.37;4.97;;;41.10;46.70;;;;;;6188700;23;20437;-47
2021/07/13 08:19:06;;;;;;;4.90;4.50;;;41.10;45.10;;;;;;6188471;23;20429;-50
2021/07/13 08:21:33;;;;;;;5.70;5.30;;;40.80;45.30;;;;;;6189469;23;20436;-44
2021/07/13 08:24:00;;;;;;;5.10;4.30;;;41.10;44.90;;;;;;6189356;23;20698;-51
2021/07/13 08:26:28;;;;;;;4.90;4.40;;;41.10;44.70;;;;;;6188955;23;20411;-48
2021/07/13 08:28:55;;;;;;;4.77;4.47;;;41.10;45.40;;;;;;6187904;23;20432;-46
2021/07/13 08:31:22;;;;;;;5.97;4.63;;;41.20;44.60;;;;;;6188950;23;20404;-46
2021/07/13 08:33:49;;;;;;;4.47;4.07;;;40.90;44.80;;;;;;6188767;23;20751;-51
2021/07/13 08:36:17;;;;;;;5.57;4.07;;;41.20;43.00;;;;;;6189021;23;20510;-49
2021/07/13 08:38:44;;;;;;;5.07;4.67;;;41.20;42.80;;;;;;6188856;23;20416;-47
2021/07/13 08:41:11;;;;;;;5.03;4.27;;;41.20;43.20;;;;;;6188743;23;20474;-48
2021/07/13 08:43:38;;;;;;;4.60;4.30;;;41.20;42.70;;;;;;6189051;23;20413;-51
2021/07/13 08:46:05;;;;;;;4.90;4.50;;;41.10;41.90;;;;;;6188404;23;20883;-52
2021/07/13 08:48:34;;;;;;;4.63;4.23;;;41.10;42.70;;;;;;6188558;23;20404;-50
2021/07/13 08:51:02;;;;;;;4.60;4.20;;;41.10;43.10;;;;;;6188527;23;20417;-49
2021/07/13 08:53:31;;;;;;;4.50;4.10;;;40.80;42.00;;;;;;6188347;23;20467;-48
2021/07/13 08:55:58;;;;;;;4.23;3.83;;;40.80;42.20;;;;;;6188144;23;20515;-47
2021/07/13 08:58:25;;;;;;;4.50;4.10;;;40.70;43.00;;;;;;6187993;23;20934;-49
2021/07/13 09:00:53;;;;;;;4.40;4.00;;;40.80;42.40;;;;;;6188681;23;20482;-46
2021/07/13 09:03:21;;;;;;;4.87;4.47;;;40.70;42.60;;;;;;6188701;23;20463;-46
2021/07/13 09:05:50;;;;;;;4.70;4.33;;;40.80;42.70;;;;;;6188545;23;20436;-47
2021/07/13 09:08:21;;;;;;;3.87;3.57;;;41.20;41.30;;;;;;6189379;23;20424;-44
2021/07/13 09:11:04;;;;;;;3.90;3.60;;;41.30;41.20;;;;;;6190099;23;20401;-48
2021/07/13 09:13:34;;;;;;;3.60;3.40;;;41.50;41.20;;;;;;6189310;23;20389;-46
2021/07/13 09:16:02;;;;;;;4.30;4.00;;;41.30;41.00;;;;;;6189633;23;20456;-47
2021/07/13 09:18:31;;;;;;;3.83;3.53;;;41.60;41.50;;;;;;6189007;23;20511;-50
2021/07/13 09:21:13;;;;;;;9.20;3.80;;;41.50;40.80;;;;;;6189253;23;20859;-47
2021/07/13 09:24:17;;;;;;;6.87;4.20;;;41.50;41.10;;;;;;6189002;23;20405;-52
2021/07/13 09:26:50;;;;;;;6.03;5.27;;;41.30;41.40;;;;;;6183223;23;20412;-51
2021/07/13 09:29:32;;;;;;;4.87;4.47;;;41.30;41.90;;;;;;6188724;23;20514;-46
2021/07/13 09:32:18;;;;;;;5.67;4.70;;;41.30;41.40;;;;;;6187889;23;20463;-48
2021/07/13 09:34:49;;;;;;;5.23;4.73;;;40.90;41.90;;;;;;6188369;23;20471;-46
2021/07/13 09:37:23;;;;;;;4.30;4.00;;;40.60;42.60;;;;;;6187797;23;20531;-47
2021/07/13 09:40:05;;;;;;;5.53;5.07;;;40.30;42.60;;;;;;6187435;23;20406;-50
2021/07/13 09:42:36;;;;;;;4.90;4.50;;;39.70;43.70;;;;;;6187598;23;20480;-51
2021/07/13 09:45:23;;;;;;;5.47;4.70;;;39.20;44.70;;;;;;6187674;23;20401;-47
2021/07/13 09:47:52;;;;;;;8.03;5.60;;;38.70;46.20;;;;;;6187455;23;20415;-50
2021/07/13 09:50:41;;;;;;;9.30;5.60;;;38.30;47.00;;;;;;6187548;23;20421;-48
2021/07/13 09:53:11;;;;;;;6.10;4.40;;;38.60;47.00;;;;;;6188143;23;20598;-47
2021/07/13 09:55:38;;;;;;;5.50;4.53;;;39.00;45.90;;;;;;6187665;23;20479;-46
2021/07/13 09:58:14;;;;;;;4.37;3.97;;;39.30;45.30;;;;;;6187313;23;20416;-48
2021/07/13 10:00:42;;;;;;;5.27;4.77;;;38.80;45.40;;;;;;6187449;23;20396;-49
2021/07/13 10:03:13;;;;;;;5.37;4.80;;;38.80;46.00;;;;;;6187141;23;20425;-45
2021/07/13 10:05:41;;;;;;;5.30;4.30;;;38.90;46.30;;;;;;6187436;23;20507;-48
2021/07/13 10:08:08;;;;;;;4.80;4.40;;;39.10;45.80;;;;;;6187994;23;20895;-48
2021/07/13 10:10:37;;;;;;;5.17;4.13;;;39.10;44.00;;;;;;6187601;23;20420;-46
2021/07/13 10:13:04;;;;;;;5.23;4.83;;;38.50;45.70;;;;;;6186983;23;20409;-48
2021/07/13 10:15:34;;;;;;;4.93;4.63;;;37.90;46.00;;;;;;6187588;23;20440;-51
2021/07/13 10:18:01;;;;;;;6.20;5.33;;;38.20;47.30;;;;;;6187122;23;20417;-46
2021/07/13 10:20:28;;;;;;;4.60;4.30;;;38.10;47.40;;;;;;6187203;23;20416;-48
2021/07/13 10:22:56;;;;;;;6.47;4.57;;;38.00;47.00;;;;;;6187538;23;20864;-48
2021/07/13 10:25:35;;;;;;;4.90;4.50;;;38.00;48.10;;;;;;6187040;23;20416;-45
2021/07/13 10:28:02;;;;;;;6.03;5.53;;;37.80;47.60;;;;;;6187376;23;20388;-46
2021/07/13 10:30:38;;;;;;;4.80;4.40;;;37.90;47.40;;;;;;6186950;23;20412;-49
2021/07/13 10:33:31;;;;;;;4.20;3.90;;;37.60;47.30;;;;;;6187307;23;20408;-45
2021/07/13 10:36:29;;;;;;;4.37;3.97;;;36.80;47.70;;;;;;6187045;23;20435;-48
2021/07/13 10:39:27;;;;;;;4.80;4.40;;;36.50;48.80;;;;;;6186700;23;20405;-50
2021/07/13 10:41:54;;;;;;;7.17;5.37;;;36.10;50.20;;;;;;6136626;23;20503;-50
2021/07/13 10:44:42;;;;;;;6.53;5.33;;;35.90;50.20;;;;;;6188651;23;20736;-46
2021/07/13 10:47:26;;;;;;;4.70;4.30;;;35.50;51.20;;;;;;6188680;23;20447;-46
2021/07/13 10:50:30;;;;;;;5.17;4.77;;;35.10;51.60;;;;;;6188976;23;20459;-46
2021/07/13 10:52:58;;;;;;;7.70;4.80;;;34.40;51.80;;;;;;6188918;23;20408;-45
2021/07/13 10:55:49;;;;;;;5.83;5.33;;;34.10;53.10;;;;;;6188923;23;20405;-45
2021/07/13 10:58:55;;;;;;;5.17;4.50;;;34.10;54.20;;;;;;6189058;23;20884;-45
2021/07/13 11:01:26;;;;;;;4.20;3.70;;;34.20;51.90;;;;;;6188696;23;20472;-48
2021/07/13 11:04:16;;;;;;;4.33;3.97;;;33.90;51.80;;;;;;6188678;23;20380;-47
2021/07/13 11:07:05;;;;;;;4.80;4.40;;;33.90;51.60;;;;;;6190007;23;20439;-48
2021/07/13 11:09:37;;;;;;;4.17;3.77;;;33.70;51.40;;;;;;6189067;23;20423;-48
2021/07/13 11:12:07;;;;;;;4.77;4.37;;;33.80;51.90;;;;;;6188914;23;20396;-50
2021/07/13 11:14:33;;;;;;;5.70;5.20;;;33.80;52.80;;;;;;6188848;23;20417;-46
2021/07/13 11:17:00;;;;;;;6.47;3.90;;;33.70;53.80;;;;;;6188645;23;20432;-47
2021/07/13 11:19:33;;;;;;;5.17;4.33;;;33.90;53.30;;;;;;6188880;23;20409;-46
2021/07/13 11:22:00;;;;;;;9.00;4.00;;;34.00;53.10;;;;;;6188901;23;20381;-44
2021/07/13 11:24:27;;;;;;;5.43;4.90;;;33.90;52.80;;;;;;6188826;23;20987;-51
2021/07/13 11:26:55;;;;;;;4.87;4.47;;;33.60;52.70;;;;;;6188666;23;20753;-44
2021/07/13 11:29:24;;;;;;;4.57;4.17;;;33.40;52.80;;;;;;6188547;23;20404;-48
2021/07/13 11:31:53;;;;;;;6.50;4.60;;;33.40;54.10;;;;;;6188387;23;20417;-44
2021/07/13 11:34:22;;;;;;;5.40;5.00;;;33.40;53.70;;;;;;6188745;23;20405;-46
2021/07/13 11:36:51;;;;;;;4.93;4.30;;;33.30;54.00;;;;;;6188696;23;20449;-51
2021/07/13 11:39:23;;;;;;;4.90;4.50;;;33.00;53.00;;;;;;6188511;23;20404;-48
2021/07/13 11:41:52;;;;;;;6.07;4.70;;;32.70;53.90;;;;;;6188642;23;20698;-48
2021/07/13 11:44:19;;;;;;;6.27;5.43;;;32.50;54.10;;;;;;6188538;23;20720;-46
2021/07/13 11:46:48;;;;;;;9.00;7.30;;;32.40;55.30;;;;;;6188486;23;20751;-47
2021/07/13 11:49:18;;;;;;;7.70;6.90;;;32.40;55.00;;;;;;6188629;23;20417;-44
2021/07/13 11:51:54;;;;;;;6.97;6.00;;;32.40;56.30;;;;;;6188588;23;20725;-50
2021/07/13 11:54:23;;;;;;;5.30;4.80;;;32.40;56.00;;;;;;6188407;23;20389;-44
2021/07/13 11:56:52;;;;;;;5.00;4.60;;;32.40;54.80;;;;;;6188194;23;20455;-46
2021/07/13 11:59:21;;;;;;;5.20;4.70;;;32.20;55.20;;;;;;6188419;23;20880;-43
2021/07/13 12:01:52;;;;;;;6.67;5.00;;;32.00;55.80;;;;;;6188067;23;20405;-45
2021/07/13 12:04:19;;;;;;;5.33;4.83;;;31.90;56.80;;;;;;6188397;23;20408;-49
2021/07/13 12:06:45;;;;;;;5.83;5.33;;;32.00;55.80;;;;;;6188376;23;20902;-45
2021/07/13 12:09:15;;;;;;;5.53;5.10;;;32.00;56.70;;;;;;6187872;23;20405;-49
2021/07/13 12:11:45;;;;;;;15.00;11.03;;;32.10;56.90;;;;;;6187849;23;20405;-46
2021/07/13 12:14:13;;;;;;;6.33;5.40;;;32.00;57.20;;;;;;6188390;23;20408;-51
2021/07/13 12:16:41;;;;;;;6.23;5.63;;;32.00;56.50;;;;;;6187836;23;20459;-46
2021/07/13 12:19:10;;;;;;;9.43;6.30;;;32.00;56.90;;;;;;6186786;23;20409;-45
2021/07/13 12:21:41;;;;;;;6.50;5.83;;;32.00;56.10;;;;;;6188195;23;20475;-47
2021/07/13 12:24:12;;;;;;;7.33;6.63;;;31.90;58.10;;;;;;6188325;23;20409;-47
2021/07/13 12:26:41;;;;;;;8.10;6.73;;;31.80;57.50;;;;;;6187735;23;20401;-50
2021/07/13 12:29:11;;;;;;;6.67;6.07;;;31.70;58.20;;;;;;6188125;23;20455;-46
2021/07/13 12:31:51;;;;;;;10.20;6.40;;;31.60;57.50;;;;;;6187788;23;20467;-50
2021/07/13 12:34:19;;;;;;;6.73;6.13;;;31.60;57.50;;;;;;6188088;23;20401;-48
2021/07/13 12:36:46;;;;;;;7.80;7.10;;;31.60;56.80;;;;;;6187457;23;20919;-49
2021/07/13 12:39:18;;;;;;;7.50;6.70;;;31.80;58.00;;;;;;6188113;23;20405;-43
2021/07/13 12:41:59;;;;;;;8.70;7.90;;;31.90;57.00;;;;;;6188107;23;20405;-49
2021/07/13 12:44:37;;;;;;;7.43;6.63;;;32.00;57.10;;;;;;6187889;23;20397;-46
2021/07/13 12:47:21;;;;;;;7.73;7.13;;;32.20;57.20;;;;;;6187702;23;20409;-45
2021/07/13 12:50:10;;;;;;;7.73;6.70;;;32.40;57.70;;;;;;6188037;23;20401;-45
2021/07/13 12:52:38;;;;;;;10.10;9.20;;;32.60;57.30;;;;;;6188182;23;20389;-45
2021/07/13 12:55:07;;;;;;;10.60;8.80;;;32.70;57.50;;;;;;6187986;23;20758;-49
2021/07/13 12:57:37;;;;;;;8.27;7.47;;;32.70;57.30;;;;;;6187172;23;20448;-45
2021/07/13 13:00:16;;;;;;;8.47;7.53;;;32.60;56.50;;;;;;6187815;23;20409;-50
2021/07/13 13:02:44;;;;;;;7.10;6.50;;;32.50;56.70;;;;;;6187584;23;20855;-48
2021/07/13 13:05:25;;;;;;;11.03;8.83;;;32.40;57.30;;;;;;6187403;23;20450;-46
2021/07/13 13:08:07;;;;;;;8.10;7.30;;;32.30;57.90;;;;;;6187586;23;20389;-47
2021/07/13 13:10:36;;;;;;;7.93;7.23;;;32.20;58.70;;;;;;6187347;23;20851;-48
2021/07/13 13:13:06;;;;;;;11.03;6.13;;;32.10;58.30;;;;;;6187836;23;20409;-48
2021/07/13 13:15:33;;;;;;;7.60;7.00;;;32.30;56.70;;;;;;6187586;23;20460;-52
2021/07/13 13:18:00;;;;;;;7.10;6.40;;;32.40;56.80;;;;;;6187689;23;20436;-49
2021/07/13 13:20:27;;;;;;;8.33;7.53;;;32.60;56.50;;;;;;6187395;23;20416;-48
2021/07/13 13:25:31;;;;;;;10.70;7.90;;;32.60;56.40;;;;;;6177588;23;20477;-50
2021/07/13 13:27:58;;;;;;;8.07;7.30;;;32.50;55.50;;;;;;6158107;23;20391;-46
2021/07/13 13:30:27;;;;;;;9.50;8.47;;;32.60;56.30;;;;;;6157885;23;20480;-48
2021/07/13 13:32:53;;;;;;;7.73;6.80;;;32.50;56.00;;;;;;6158080;23;20444;-48
2021/07/13 13:35:27;;;;;;;7.23;6.63;;;32.50;56.30;;;;;;6157513;23;20415;-48
2021/07/13 13:38:06;;;;;;;7.27;6.67;;;32.60;56.00;;;;;;6157729;23;20429;-51
2021/07/13 13:40:35;;;;;;;9.23;6.83;;;32.60;55.40;;;;;;6157844;23;20422;-49
2021/07/13 13:43:02;;;;;;;7.63;7.03;;;32.60;55.50;;;;;;6158984;23;20662;-55
2021/07/13 13:45:31;;;;;;;7.60;6.80;;;32.60;56.30;;;;;;6158623;23;20413;-48
2021/07/13 13:47:58;;;;;;;7.60;6.90;;;32.70;55.50;;;;;;6158538;23;20402;-50
2021/07/13 13:50:25;;;;;;;11.00;7.10;;;32.70;54.80;;;;;;6158764;23;20465;-48
2021/07/13 13:52:52;;;;;;;7.27;6.47;;;32.60;55.60;;;;;;6157857;23;20432;-46
2021/07/13 13:55:19;;;;;;;22.83;8.40;;;32.60;55.80;;;;;;6158149;23;20418;-49
2021/07/13 13:57:47;;;;;;;6.77;5.50;;;32.50;55.80;;;;;;6158299;23;20504;-49
2021/07/13 14:00:15;;;;;;;6.83;6.10;;;32.50;55.40;;;;;;6158534;23;20402;-48
2021/07/13 14:02:43;;;;;;;7.73;6.80;;;32.50;55.00;;;;;;6158690;23;20418;-45
2021/07/13 14:05:11;;;;;;;5.20;4.80;;;32.40;55.20;;;;;;6158608;23;20880;-44
2021/07/13 14:07:37;;;;;;;16.83;15.27;;;32.30;54.80;;;;;;6158653;23;20394;-47
2021/07/13 14:10:05;;;;;;;13.43;11.73;;;32.30;56.50;;;;;;6157952;23;20429;-51
2021/07/13 14:12:32;;;;;;;9.40;8.40;;;32.30;57.10;;;;;;6158094;23;20884;-49
2021/07/13 14:14:59;;;;;;;7.77;7.07;;;32.20;56.20;;;;;;6158180;23;20457;-46
2021/07/13 14:17:26;;;;;;;9.90;6.40;;;32.20;55.50;;;;;;6157645;23;20437;-47
2021/07/13 14:19:55;;;;;;;6.53;5.87;;;32.20;55.40;;;;;;6123669;23;20498;-49
2021/07/13 14:22:24;;;;;;;8.73;7.73;;;32.20;54.90;;;;;;6127280;23;20450;-47
2021/07/13 14:24:51;;;;;;;6.83;6.20;;;32.20;55.10;;;;;;6127552;23;20442;-44
2021/07/13 14:27:18;;;;;;;7.00;6.40;;;32.30;55.00;;;;;;6127128;23;20419;-47
2021/07/13 14:29:44;;;;;;;6.63;6.10;;;32.40;55.50;;;;;;6127366;23;20758;-47
2021/07/13 14:32:11;;;;;;;8.33;7.07;;;32.40;54.30;;;;;;6127399;23;20473;-48
2021/07/13 14:34:38;;;;;;;6.10;5.50;;;32.50;54.40;;;;;;6127363;23;20465;-50
2021/07/13 14:37:07;;;;;;;8.40;6.13;;;32.50;53.70;;;;;;6127213;23;20445;-46
2021/07/13 14:39:33;;;;;;;6.67;6.07;;;32.50;55.70;;;;;;6127289;23;20411;-50
2021/07/13 14:42:00;;;;;;;7.77;6.30;;;32.50;54.90;;;;;;6127574;23;20407;-49
2021/07/13 14:44:27;;;;;;;6.13;5.53;;;32.50;54.40;;;;;;6127595;23;20418;-47
2021/07/13 14:46:54;;;;;;;7.17;6.50;;;32.50;54.20;;;;;;6127436;23;20434;-50
2021/07/13 14:49:21;;;;;;;7.53;6.83;;;32.50;54.70;;;;;;6127220;23;20469;-49
2021/07/13 14:51:47;;;;;;;6.67;5.93;;;32.50;55.00;;;;;;6127068;23;20426;-48
2021/07/13 14:54:16;;;;;;;6.97;6.37;;;32.50;55.10;;;;;;6127125;23;20418;-44
2021/07/13 14:56:43;;;;;;;6.30;5.70;;;32.60;55.50;;;;;;6127575;23;20666;-48
2021/07/13 14:59:10;;;;;;;7.30;6.60;;;32.50;54.50;;;;;;6127082;23;20467;-46
2021/07/13 15:01:36;;;;;;;6.13;5.63;;;32.60;55.20;;;;;;6127445;23;20891;-47
2021/07/13 15:04:04;;;;;;;15.03;6.50;;;32.50;54.40;;;;;;6127030;23;20446;-47
2021/07/13 15:06:30;;;;;;;7.30;6.27;;;32.50;54.70;;;;;;6127343;23;20406;-47
2021/07/13 15:08:57;;;;;;;7.33;6.60;;;32.50;55.10;;;;;;6127289;23;20415;-44
2021/07/13 15:11:25;;;;;;;6.27;5.77;;;32.40;55.70;;;;;;6127341;23;20949;-50
2021/07/13 15:13:52;;;;;;;9.57;7.70;;;32.30;55.70;;;;;;6127317;23;20729;-48
2021/07/13 15:16:19;;;;;;;6.43;5.83;;;32.10;56.20;;;;;;6127139;23;20429;-47
2021/07/13 15:18:45;;;;;;;10.77;7.13;;;31.90;55.50;;;;;;6127166;23;20451;-47
2021/07/13 15:21:12;;;;;;;7.20;6.00;;;31.90;56.50;;;;;;6126543;23;20439;-48
2021/07/13 15:23:39;;;;;;;7.30;6.70;;;31.60;55.60;;;;;;6126888;23;20929;-46
2021/07/13 15:26:05;;;;;;;7.60;6.80;;;31.50;56.60;;;;;;6127166;23;20419;-51
2021/07/13 15:28:33;;;;;;;7.33;6.63;;;31.50;57.40;;;;;;6126982;23;20406;-47
2021/07/13 15:31:00;;;;;;;7.27;6.67;;;31.40;57.20;;;;;;6128466;23;20916;-44
2021/07/13 15:33:27;;;;;;;16.87;15.40;;;31.30;57.60;;;;;;6128992;23;20753;-51
2021/07/13 15:35:54;;;;;;;7.27;6.47;;;31.20;58.00;;;;;;6128805;23;20414;-44
2021/07/13 15:38:21;;;;;;;7.73;7.03;;;31.20;58.00;;;;;;6129092;23;20947;-43
2021/07/13 15:40:49;;;;;;;8.90;8.07;;;31.20;58.30;;;;;;6129373;23;20498;-44
2021/07/13 15:43:17;;;;;;;10.93;6.60;;;31.20;57.80;;;;;;6128701;23;20422;-49
2021/07/13 15:45:45;;;;;;;8.47;7.60;;;31.10;57.60;;;;;;6128658;23;20411;-43
2021/07/13 15:48:12;;;;;;;10.03;6.67;;;31.10;58.30;;;;;;6128711;23;20406;-48
2021/07/13 15:50:39;;;;;;;7.60;7.00;;;31.10;58.70;;;;;;6129027;23;20418;-45
2021/07/13 15:53:07;;;;;;;6.90;6.20;;;31.00;58.20;;;;;;6129136;23;20925;-47
2021/07/13 15:55:35;;;;;;;8.60;7.70;;;31.00;58.20;;;;;;6129023;23;20425;-42
2021/07/13 15:58:04;;;;;;;6.50;6.00;;;30.90;58.50;;;;;;6128834;23;20778;-49
2021/07/13 16:00:32;;;;;;;7.20;6.50;;;30.90;58.40;;;;;;6128992;23;20509;-49
2021/07/13 16:03:00;;;;;;;8.27;7.37;;;31.00;58.50;;;;;;6128531;23;20529;-50
2021/07/13 16:05:27;;;;;;;7.40;6.53;;;31.10;58.70;;;;;;6128658;23;20873;-43
2021/07/13 16:07:59;;;;;;;9.20;6.90;;;31.10;58.40;;;;;;6128928;23;20506;-46
2021/07/13 16:10:27;;;;;;;8.83;7.40;;;31.10;58.70;;;;;;6128585;23;20422;-49
2021/07/13 16:12:54;;;;;;;9.67;8.77;;;31.10;58.90;;;;;;6128892;23;20922;-49
2021/07/13 16:15:21;;;;;;;11.37;9.00;;;31.00;59.10;;;;;;6128676;23;20406;-51
2021/07/13 16:17:49;;;;;;;10.47;9.20;;;30.90;59.40;;;;;;6128557;23;20450;-48
2021/07/13 16:20:18;;;;;;;8.80;7.40;;;30.90;59.90;;;;;;6128257;23;20438;-44